Time;durP1;ratioP1;P1;durP2;ratioP2;P2;SDS_P1;SDS_P2;PMS_P1;PMS_P2;Temp;Humidity;BMP_temperature;BMP_pressure;BME280_temperature;BME280_humidity;BME280_pressure;Samples;Min_cycle;Max_cycle;Signal;HPM_P1;HPM_P2
2021/04/27 00:01:52;;;;;;;2.67;1.10;;;15.90;67.40;;;16.38;36.36;100842.06;4875975;28;97328;-55
2021/04/27 00:04:18;;;;;;;1.63;1.07;;;16.20;66.60;;;16.55;35.69;100841.09;4889681;28;98670;-56
2021/04/27 00:06:44;;;;;;;1.77;1.67;;;16.40;66.20;;;16.52;35.80;100842.16;4890705;28;103362;-54
2021/04/27 00:12:54;;;;;;;1.07;0.93;;;16.10;60.30;;;16.43;35.94;100841.81;4879453;28;99251;-55
2021/04/27 00:15:33;;;;;;;2.63;1.10;;;16.00;67.00;;;16.47;35.79;100838.00;4885336;28;97194;-55
2021/04/27 00:17:59;;;;;;;1.83;1.17;;;16.10;64.50;;;16.46;36.03;100830.97;4888652;28;99899;-56
2021/04/27 00:20:26;;;;;;;5.90;3.50;;;16.20;65.50;;;16.42;35.87;100840.09;4885934;28;99569;-51
2021/04/27 00:22:57;;;;;;;3.07;2.80;;;16.10;60.90;;;16.33;36.05;100837.00;4890593;28;97307;-53
2021/04/27 00:25:27;;;;;;;2.63;2.43;;;15.90;61.70;;;16.22;36.50;100833.25;4890458;28;98495;-51
2021/04/27 00:27:54;;;;;;;7.77;4.53;;;15.60;63.40;;;16.12;36.74;100832.03;4890826;28;99502;-52
2021/04/27 00:30:23;;;;;;;5.30;4.57;;;15.40;64.50;;;16.02;35.43;100818.38;4889332;28;98931;-55
2021/04/27 00:38:47;;;;;;;2.90;1.70;;;15.20;67.50;;;15.83;37.48;100817.69;4784161;26;99298;-54
2021/04/27 00:41:13;;;;;;;2.30;2.10;;;15.20;66.60;;;15.80;37.44;100820.50;4894897;28;99803;-54
2021/04/27 00:43:39;;;;;;;5.30;4.07;;;15.10;65.40;;;15.73;37.51;100818.16;4887778;28;97844;-51
2021/04/27 00:46:05;;;;;;;3.83;2.63;;;14.90;66.60;;;15.69;37.15;100813.13;4895258;28;100037;-54
2021/04/27 00:48:31;;;;;;;1.90;1.70;;;14.90;65.30;;;15.64;37.72;100818.69;4899754;28;97520;-52
2021/04/27 00:50:58;;;;;;;1.90;1.67;;;14.80;66.90;;;15.71;37.51;100806.75;4907556;28;97359;-55
2021/04/27 00:53:24;;;;;;;1.70;1.30;;;15.10;67.60;;;15.71;37.42;100811.22;4903790;28;97733;-55
2021/04/27 00:55:50;;;;;;;3.27;2.93;;;15.10;65.80;;;15.64;37.46;100810.72;4908387;28;97367;-56
2021/04/27 00:58:17;;;;;;;1.40;1.30;;;14.90;64.90;;;15.66;37.52;100811.47;4904265;28;97635;-54
2021/04/27 01:00:44;;;;;;;2.33;1.37;;;14.90;68.40;;;15.72;37.63;100815.59;4890765;28;102761;-52
2021/04/27 01:03:10;;;;;;;2.57;2.23;;;15.10;66.40;;;15.60;37.43;100814.47;4899608;28;96835;-55
2021/04/27 01:05:40;;;;;;;2.17;1.90;;;14.90;63.90;;;15.67;37.64;100812.34;4888930;28;97536;-55
2021/04/27 01:08:49;;;;;;;1.57;1.23;;;15.00;70.40;;;15.75;37.10;100808.31;4895472;28;98667;-54
2021/04/27 01:11:21;;;;;;;1.40;1.20;;;15.20;67.40;;;15.87;37.13;100801.47;4889715;28;102136;-51
2021/04/27 01:14:16;;;;;;;1.83;1.20;;;15.50;66.50;;;16.02;36.93;100810.38;4896370;28;97297;-55
2021/04/27 01:16:51;;;;;;;1.70;0.97;;;15.70;68.60;;;16.13;36.74;100802.66;4887565;28;98048;-54
2021/04/27 01:19:26;;;;;;;1.20;1.00;;;15.90;67.90;;;16.18;36.71;100800.59;4899794;28;97265;-54
2021/04/27 01:21:55;;;;;;;1.07;0.87;;;16.00;67.20;;;16.16;36.54;100809.63;4890478;28;100582;-56
2021/04/27 01:24:49;;;;;;;1.63;1.00;;;15.90;65.00;;;16.10;36.37;100802.00;4898787;28;97349;-55
2021/04/27 01:27:17;;;;;;;4.53;2.07;;;15.70;62.00;;;15.98;36.88;100803.53;4904974;28;97661;-56
2021/04/27 01:29:44;;;;;;;3.83;3.30;;;15.40;62.30;;;15.80;33.71;100805.41;4889842;28;97391;-54
2021/04/27 01:32:11;;;;;;;4.70;3.37;;;15.20;63.30;;;15.72;37.31;100803.16;4910981;28;97909;-56
2021/04/27 01:34:41;;;;;;;1.40;1.30;;;15.00;65.50;;;15.66;37.60;100790.22;4906827;28;97237;-57
2021/04/27 01:37:09;;;;;;;1.63;1.30;;;14.90;67.40;;;15.62;37.68;100791.34;4901351;28;101355;-52
2021/04/27 01:39:36;;;;;;;1.87;0.97;;;14.80;69.30;;;15.59;37.78;100791.47;4910614;28;98405;-54
2021/04/27 01:42:08;;;;;;;5.50;2.60;;;14.90;67.10;;;15.53;38.02;100781.16;4914213;28;97177;-52
2021/04/27 01:44:36;;;;;;;2.40;1.73;;;14.80;67.10;;;15.45;38.12;100780.69;4910740;28;99492;-55
2021/04/27 01:47:05;;;;;;;5.30;3.00;;;14.60;65.70;;;15.39;38.00;100783.69;4905673;28;98343;-52
2021/04/27 01:49:31;;;;;;;1.40;1.30;;;14.50;65.20;;;15.32;38.45;100776.97;4907924;28;98490;-50
2021/04/27 01:51:57;;;;;;;2.23;1.23;;;14.30;70.50;;;15.32;38.36;100772.50;4910864;28;98435;-54
2021/04/27 01:54:26;;;;;;;1.47;0.80;;;14.50;70.60;;;15.32;38.32;100771.66;4909245;28;98670;-53
2021/04/27 01:56:53;;;;;;;2.30;1.87;;;14.50;71.70;;;15.27;38.48;100769.25;4894169;28;96941;-55
2021/04/27 01:59:19;;;;;;;0.63;0.63;;;14.40;69.30;;;15.43;38.10;100769.28;4912967;28;97373;-57
2021/04/27 02:01:46;;;;;;;2.50;1.50;;;14.80;71.60;;;15.50;37.95;100765.38;4917914;28;101366;-54
2021/04/27 02:04:22;;;;;;;1.00;0.90;;;15.00;66.90;;;15.55;38.18;100768.63;4911853;28;97632;-54
2021/04/27 02:06:50;;;;;;;2.57;1.90;;;15.00;69.30;;;15.57;37.71;100765.88;4896383;28;99765;-56
2021/04/27 02:09:19;;;;;;;1.27;1.10;;;15.10;65.80;;;15.62;37.94;100764.75;4912722;28;97657;-54
2021/04/27 02:11:53;;;;;;;1.70;1.60;;;15.10;67.30;;;15.73;37.77;100758.81;4896320;28;101582;-55
2021/04/27 02:14:24;;;;;;;0.90;0.90;;;15.30;66.70;;;15.83;37.59;100761.81;4913567;28;97448;-53
2021/04/27 02:17:22;;;;;;;1.80;0.90;;;15.50;69.60;;;15.91;37.58;100752.47;4913374;28;96982;-55
2021/04/27 02:19:48;;;;;;;1.63;0.93;;;15.60;66.30;;;15.98;37.14;100756.50;4905510;28;103612;-51
2021/04/27 02:22:15;;;;;;;1.00;0.80;;;15.70;68.10;;;16.06;37.23;100753.44;4917084;28;98351;-50
2021/04/27 02:24:42;;;;;;;1.23;1.10;;;15.80;66.20;;;16.02;37.25;100759.84;4908694;28;97070;-52
2021/04/27 02:27:12;;;;;;;4.13;2.87;;;15.70;64.90;;;15.98;37.37;100755.66;4893638;28;97726;-52
2021/04/27 02:29:40;;;;;;;4.23;2.53;;;15.50;66.40;;;15.86;36.76;100765.16;4907792;28;97571;-51
2021/04/27 02:32:07;;;;;;;4.60;3.00;;;15.20;62.30;;;15.64;36.66;100768.16;4918157;28;97388;-53
2021/04/27 02:34:34;;;;;;;3.93;2.47;;;14.70;61.00;;;15.43;37.85;100769.28;4912706;28;98013;-55
2021/04/27 02:37:00;;;;;;;6.20;3.43;;;14.30;65.30;;;15.32;37.24;100755.72;4911377;28;97208;-53
2021/04/27 02:39:27;;;;;;;2.73;2.43;;;14.20;64.90;;;15.23;38.50;100767.72;4902033;28;98691;-51
2021/04/27 02:41:53;;;;;;;1.47;1.33;;;14.10;68.10;;;15.21;38.79;100752.78;4906176;28;97484;-54
2021/04/27 02:44:19;;;;;;;4.13;3.07;;;14.30;71.80;;;15.17;38.52;100760.91;4903161;28;97261;-51
2021/04/27 02:46:46;;;;;;;2.93;2.30;;;14.30;67.50;;;15.12;38.89;100760.28;4910668;28;97011;-49
2021/04/27 02:49:14;;;;;;;3.27;2.43;;;14.20;68.80;;;15.04;38.53;100757.16;4911527;28;97208;-55
2021/04/27 02:51:41;;;;;;;3.63;2.70;;;14.10;66.50;;;14.99;38.63;100753.91;4907662;28;97789;-53
2021/04/27 02:54:08;;;;;;;3.53;3.10;;;14.00;67.40;;;14.84;38.91;100754.72;4911395;28;97405;-52
2021/04/27 02:56:35;;;;;;;5.37;3.73;;;13.70;67.50;;;14.79;38.51;100748.78;4886190;28;97040;-52
2021/04/27 02:59:04;;;;;;;3.63;2.60;;;13.60;68.20;;;14.73;38.94;100746.44;4908975;28;97640;-51
2021/04/27 03:01:30;;;;;;;2.90;2.27;;;13.60;70.30;;;14.74;39.64;100748.16;4905193;28;97185;-59
2021/04/27 03:03:56;;;;;;;3.73;3.23;;;13.70;68.60;;;14.70;39.53;100742.13;4908457;28;97034;-55
2021/04/27 03:06:23;;;;;;;2.83;2.33;;;13.70;68.40;;;14.61;39.36;100739.97;4912997;28;97201;-49
2021/04/27 03:08:50;;;;;;;2.53;1.80;;;13.40;67.40;;;14.58;39.86;100743.63;4896120;28;97813;-51
2021/04/27 03:11:16;;;;;;;3.10;2.33;;;13.40;70.50;;;14.49;39.66;100744.09;4894826;28;99363;-51
2021/04/27 03:13:43;;;;;;;4.03;3.13;;;13.30;69.90;;;14.45;39.45;100739.00;4911654;28;97056;-53
2021/04/27 03:16:09;;;;;;;3.27;2.30;;;13.30;69.10;;;14.44;39.61;100735.50;4916527;28;96713;-54
2021/04/27 03:18:36;;;;;;;4.27;3.10;;;13.30;68.60;;;14.39;39.41;100734.84;4909785;28;101266;-52
2021/04/27 03:21:03;;;;;;;5.60;3.50;;;13.20;67.60;;;14.39;39.72;100740.16;4902600;28;97655;-53
2021/04/27 03:23:29;;;;;;;5.87;3.53;;;13.20;69.30;;;14.37;39.01;100733.22;4909706;28;97325;-53
2021/04/27 03:25:55;;;;;;;5.57;3.13;;;13.20;69.10;;;14.30;38.80;100727.31;4908591;28;97221;-52
2021/04/27 03:28:21;;;;;;;3.70;3.30;;;13.10;68.50;;;14.22;40.21;100734.81;4895032;28;97626;-51
2021/04/27 03:30:47;;;;;;;5.80;3.80;;;13.00;71.00;;;14.21;39.44;100738.41;4893556;28;99238;-51
2021/04/27 03:33:13;;;;;;;3.23;2.93;;;13.00;69.60;;;14.18;40.59;100738.56;4890959;28;97202;-53
2021/04/27 03:35:43;;;;;;;5.10;2.60;;;13.00;71.60;;;14.16;40.34;100737.75;4896112;28;97155;-51
2021/04/27 03:38:10;;;;;;;2.70;1.80;;;12.90;69.20;;;14.17;40.50;100740.34;4909296;28;97475;-51
2021/04/27 03:40:36;;;;;;;3.33;1.63;;;13.00;70.80;;;14.13;40.96;100745.88;4894149;28;98371;-53
2021/04/27 03:43:02;;;;;;;3.73;3.10;;;12.90;71.30;;;14.13;40.56;100745.88;4895031;28;96831;-49
2021/04/27 03:45:35;;;;;;;3.33;2.30;;;12.90;70.20;;;14.15;41.07;100744.00;4900155;28;97114;-53
2021/04/27 03:48:19;;;;;;;2.07;1.87;;;13.00;71.80;;;14.16;40.78;100748.38;4903077;28;102298;-55
2021/04/27 03:50:45;;;;;;;4.13;3.20;;;13.00;70.90;;;14.17;40.93;100752.75;4891272;28;99885;-54
2021/04/27 03:53:11;;;;;;;1.23;1.00;;;13.10;71.40;;;14.17;40.75;100753.59;4912691;28;96779;-50
2021/04/27 03:55:38;;;;;;;8.20;4.17;;;13.00;73.20;;;14.20;40.74;100748.16;4892070;28;97503;-53
2021/04/27 03:58:06;;;;;;;1.47;1.30;;;13.10;71.00;;;14.22;40.71;100750.75;4908139;28;97596;-52
2021/04/27 04:00:32;;;;;;;1.77;1.33;;;13.10;73.10;;;14.26;40.91;100752.31;4892613;28;97379;-51
2021/04/27 04:02:58;;;;;;;7.03;3.10;;;13.20;72.00;;;14.28;40.76;100747.78;4907292;28;97103;-56
2021/04/27 04:05:24;;;;;;;6.10;2.80;;;13.20;70.60;;;14.29;40.78;100747.69;4894960;28;98606;-56
2021/04/27 04:07:50;;;;;;;4.83;3.27;;;13.20;72.30;;;14.32;40.60;100740.50;4870732;28;103779;-53
2021/04/27 04:10:16;;;;;;;1.43;1.10;;;13.20;71.90;;;14.33;40.48;100743.13;4892968;28;97386;-53
2021/04/27 04:12:43;;;;;;;2.37;2.17;;;13.20;70.30;;;14.37;40.56;100743.81;4891409;28;96887;-53
2021/04/27 04:15:15;;;;;;;2.30;1.37;;;13.20;70.80;;;14.38;40.40;100740.22;4897479;28;97764;-55
2021/04/27 04:17:42;;;;;;;2.43;1.60;;;13.30;70.60;;;14.33;40.75;100748.44;4898114;28;97824;-56
2021/04/27 04:20:16;;;;;;;4.30;2.77;;;13.10;71.60;;;14.37;40.47;100739.38;4909066;28;97385;-54
2021/04/27 04:22:43;;;;;;;4.60;3.10;;;13.20;71.30;;;14.39;39.98;100737.50;4889930;28;100728;-56
2021/04/27 04:25:14;;;;;;;1.50;1.03;;;13.30;69.90;;;14.41;40.64;100735.63;4890897;28;97526;-51
2021/04/27 04:27:40;;;;;;;2.03;1.53;;;13.30;74.00;;;14.44;40.22;100740.81;4889774;28;100275;-53
2021/04/27 04:30:16;;;;;;;3.80;3.00;;;13.40;70.40;;;14.43;40.14;100747.00;4905693;28;97459;-53
2021/04/27 04:32:42;;;;;;;2.87;1.27;;;13.30;69.10;;;14.36;39.81;100737.66;4892849;28;97296;-53
2021/04/27 04:35:10;;;;;;;2.03;0.77;;;13.20;72.10;;;14.40;40.59;100755.13;4891059;28;97175;-51
2021/04/27 04:37:35;;;;;;;1.50;1.10;;;13.20;75.70;;;14.37;40.27;100750.00;4892087;28;99570;-56
2021/04/27 04:40:02;;;;;;;8.63;3.97;;;13.20;74.20;;;14.43;40.44;100760.28;4869971;28;98753;-52
2021/04/27 04:42:28;;;;;;;2.50;1.57;;;13.40;70.00;;;14.36;40.47;100763.34;4898227;28;97422;-50
2021/04/27 04:44:54;;;;;;;4.23;2.07;;;13.10;72.10;;;14.32;40.47;100759.97;4891707;28;99891;-50
2021/04/27 04:47:20;;;;;;;13.27;4.60;;;13.10;73.00;;;14.30;40.06;100759.16;4896866;28;97583;-54
2021/04/27 04:49:46;;;;;;;15.47;4.03;;;13.10;69.10;;;14.26;39.81;100757.63;4894109;28;97171;-52
2021/04/27 04:52:11;;;;;;;13.60;5.17;;;13.00;69.00;;;14.28;40.41;100756.59;4890162;28;97040;-56
2021/04/27 04:54:39;;;;;;;18.70;4.20;;;13.10;71.80;;;14.30;40.75;100757.38;4878290;28;98152;-53
2021/04/27 04:57:05;;;;;;;12.00;3.80;;;13.10;72.70;;;14.23;39.49;100752.47;4896283;28;99031;-53
2021/04/27 04:59:31;;;;;;;3.50;1.17;;;13.10;69.30;;;14.28;40.50;100755.75;4903430;28;97008;-57
2021/04/27 05:01:57;;;;;;;9.90;2.80;;;13.10;75.60;;;14.35;40.47;100762.47;4906228;28;97340;-54
2021/04/27 05:04:23;;;;;;;5.80;1.67;;;13.30;73.10;;;14.42;40.55;100763.88;4910359;28;97059;-54
2021/04/27 05:06:49;;;;;;;3.60;1.20;;;13.50;71.20;;;14.58;40.29;100758.69;4885441;28;109043;-49
2021/04/27 05:09:15;;;;;;;1.53;1.00;;;13.80;75.60;;;14.83;39.61;100763.63;4896432;28;98261;-54
2021/04/27 05:11:42;;;;;;;1.10;0.87;;;14.30;72.80;;;15.13;39.21;100764.66;4904585;28;97334;-52
2021/04/27 05:14:08;;;;;;;2.60;1.00;;;14.70;72.30;;;15.51;38.15;100767.09;4917485;28;97253;-55
2021/04/27 05:16:34;;;;;;;1.30;0.97;;;15.30;71.20;;;15.84;37.53;100768.88;4890030;28;99039;-53
2021/04/27 05:19:01;;;;;;;2.80;1.20;;;15.70;69.80;;;16.12;36.89;100769.03;4898148;28;99273;-52
2021/04/27 05:21:27;;;;;;;1.87;1.10;;;16.10;68.50;;;16.35;36.49;100767.72;4895211;28;98537;-53
2021/04/27 05:23:53;;;;;;;1.20;0.90;;;16.40;67.60;;;16.51;36.11;100773.00;4896971;28;97968;-53
2021/04/27 05:26:19;;;;;;;1.53;1.00;;;16.60;66.50;;;16.66;36.09;100772.09;4894464;28;97087;-55
2021/04/27 05:28:45;;;;;;;1.37;0.90;;;16.70;66.20;;;16.79;35.57;100769.63;4890451;28;104337;-53
2021/04/27 05:31:11;;;;;;;3.00;1.00;;;16.90;65.80;;;16.90;35.56;100773.31;4909574;28;97088;-50
2021/04/27 05:33:37;;;;;;;3.00;0.90;;;17.00;65.40;;;17.00;35.15;100767.44;4900722;28;96805;-55
2021/04/27 05:36:04;;;;;;;2.13;0.90;;;17.10;64.70;;;17.08;35.07;100767.84;4875519;28;99166;-55
2021/04/27 05:38:30;;;;;;;1.23;0.97;;;17.20;64.40;;;17.17;35.04;100769.94;4897090;28;98889;-57
2021/04/27 05:40:56;;;;;;;1.33;0.80;;;17.30;64.30;;;17.26;34.75;100774.72;4900309;28;97009;-50
2021/04/27 05:43:22;;;;;;;1.17;0.77;;;17.40;64.00;;;17.33;34.52;100765.38;4897775;28;97089;-52
2021/04/27 05:45:48;;;;;;;1.57;1.17;;;17.50;63.80;;;17.39;34.54;100765.00;4900409;28;103218;-53
2021/04/27 05:48:14;;;;;;;1.97;1.00;;;17.50;63.60;;;17.42;34.17;100770.16;4894381;28;97570;-48
2021/04/27 05:50:40;;;;;;;1.10;0.90;;;17.60;63.30;;;17.46;34.22;100766.31;4894638;28;98461;-53
2021/04/27 05:53:06;;;;;;;2.73;1.03;;;17.60;63.00;;;17.48;34.29;100769.75;4895917;28;98460;-54
2021/04/27 05:55:32;;;;;;;1.80;1.00;;;17.70;63.10;;;17.51;34.06;100766.06;4895072;28;97665;-51
2021/04/27 05:57:59;;;;;;;2.60;0.97;;;17.70;63.00;;;17.55;33.83;100765.75;4894693;28;97290;-53
2021/04/27 06:00:25;;;;;;;2.37;0.90;;;17.70;62.70;;;17.56;34.20;100755.94;4898978;28;97331;-53
2021/04/27 06:02:51;;;;;;;0.97;0.70;;;17.80;62.80;;;17.56;33.75;100763.97;4891967;28;99636;-51
2021/04/27 06:05:17;;;;;;;1.03;0.80;;;17.80;62.60;;;17.61;33.83;100763.66;4924692;28;98040;-53
2021/04/27 06:07:43;;;;;;;1.30;0.80;;;17.80;62.50;;;17.65;33.82;100755.38;4877875;28;97518;-53
2021/04/27 06:10:10;;;;;;;1.10;0.90;;;17.80;62.00;;;17.69;33.95;100756.06;4900190;28;97300;-51
2021/04/27 06:12:36;;;;;;;1.13;1.00;;;17.90;62.00;;;17.71;33.65;100754.16;4892070;28;98495;-51
2021/04/27 06:15:05;;;;;;;1.27;0.97;;;17.90;62.00;;;17.70;33.41;100763.13;4901504;28;97783;-52
2021/04/27 06:17:32;;;;;;;1.20;1.07;;;17.90;61.70;;;17.71;33.59;100764.81;4902160;28;98233;-57
2021/04/27 06:19:58;;;;;;;1.73;0.90;;;17.90;61.90;;;17.74;33.61;100751.28;4897075;28;97331;-53
2021/04/27 06:22:24;;;;;;;1.57;0.87;;;17.90;61.60;;;17.73;33.08;100754.91;4890473;28;102196;-55
2021/04/27 06:24:50;;;;;;;1.53;0.80;;;17.90;60.80;;;17.73;33.46;100752.25;4887025;28;99652;-55
2021/04/27 06:27:16;;;;;;;1.57;0.80;;;17.90;61.40;;;17.75;33.21;100755.66;4893023;28;98055;-56
2021/04/27 06:29:41;;;;;;;2.27;0.90;;;17.90;61.30;;;17.69;33.37;100754.25;4880534;28;98503;-55
2021/04/27 06:32:07;;;;;;;1.40;1.10;;;17.90;61.60;;;17.74;33.67;100753.97;4891000;28;97553;-55
2021/04/27 06:34:33;;;;;;;1.63;0.90;;;17.90;61.50;;;17.70;33.69;100747.97;4890272;28;98015;-54
2021/04/27 06:36:59;;;;;;;1.13;1.00;;;17.90;61.80;;;17.74;33.60;100743.28;4902469;28;100096;-51
2021/04/27 06:39:25;;;;;;;1.40;1.10;;;17.90;61.30;;;17.71;31.25;100754.16;4883497;28;96894;-54
2021/04/27 06:41:51;;;;;;;4.03;1.73;;;17.90;58.30;;;17.65;31.80;100743.81;4895845;28;97395;-55
2021/04/27 06:44:17;;;;;;;4.20;1.80;;;17.80;55.80;;;17.58;31.81;100747.84;4899561;28;97324;-56
2021/04/27 06:46:43;;;;;;;1.20;0.90;;;17.70;56.80;;;17.58;32.41;100742.53;4911341;28;97466;-56
2021/04/27 06:49:09;;;;;;;5.47;1.30;;;17.60;58.00;;;17.48;33.83;100735.09;4912663;28;97787;-53
2021/04/27 06:51:34;;;;;;;1.60;0.80;;;17.50;61.50;;;17.47;33.88;100741.38;4906576;28;97780;-52
2021/04/27 06:54:00;;;;;;;0.67;0.67;;;17.50;62.00;;;17.49;33.78;100743.94;4911848;28;97109;-54
2021/04/27 06:56:26;;;;;;;1.17;0.83;;;17.50;62.70;;;17.46;33.61;100730.81;4880609;28;96962;-54
2021/04/27 06:58:52;;;;;;;1.80;1.03;;;17.60;61.20;;;17.49;33.71;100730.59;4894084;28;97413;-53
2021/04/27 07:01:18;;;;;;;0.97;0.67;;;17.60;62.20;;;17.54;33.81;100736.53;4881801;28;97822;-53
2021/04/27 07:03:48;;;;;;;1.40;0.83;;;17.70;61.80;;;17.47;33.94;100730.72;4877234;28;97613;-55
2021/04/27 07:06:14;;;;;;;1.17;0.93;;;17.70;62.10;;;17.48;33.51;100732.41;4896277;28;98080;-54
2021/04/27 07:08:41;;;;;;;2.00;0.63;;;17.70;61.70;;;17.55;33.82;100731.09;4892869;28;97160;-56
2021/04/27 07:11:08;;;;;;;0.87;0.70;;;17.70;61.70;;;17.54;32.95;100729.38;4913120;28;102095;-55
2021/04/27 07:13:34;;;;;;;1.73;1.03;;;17.70;59.50;;;17.56;33.72;100715.94;4887882;28;97766;-55
2021/04/27 07:16:00;;;;;;;1.17;0.80;;;17.80;61.80;;;17.59;33.63;100717.56;4874053;28;98450;-55
2021/04/27 07:18:26;;;;;;;1.97;0.93;;;17.80;61.20;;;17.54;33.45;100718.72;4869131;28;98640;-56
2021/04/27 07:20:52;;;;;;;0.90;0.80;;;17.80;61.30;;;17.56;33.22;100715.94;4903932;28;97625;-54
2021/04/27 07:23:18;;;;;;;2.33;1.07;;;17.80;60.90;;;17.53;33.26;100725.00;4911020;28;97246;-54
2021/04/27 07:25:44;;;;;;;2.50;0.80;;;17.80;61.30;;;17.51;32.98;100721.59;4901585;28;98806;-53
2021/04/27 07:28:10;;;;;;;1.87;0.97;;;17.70;61.00;;;17.55;33.05;100728.44;4892192;28;97142;-56
2021/04/27 07:30:36;;;;;;;1.10;0.80;;;17.80;61.10;;;17.54;33.42;100721.38;4907723;28;97009;-52
2021/04/27 07:33:04;;;;;;;1.77;1.43;;;17.80;61.10;;;17.57;31.73;100724.81;4894568;28;98146;-56
2021/04/27 07:35:31;;;;;;;1.00;0.90;;;17.80;58.70;;;17.53;29.22;100719.69;4905596;28;97441;-58
2021/04/27 07:38:01;;;;;;;2.20;1.13;;;17.80;57.70;;;17.60;32.76;100714.78;4899731;28;97287;-52
2021/04/27 07:40:28;;;;;;;0.77;0.70;;;17.80;60.20;;;17.61;33.17;100711.16;4902863;28;97449;-49
2021/04/27 07:42:54;;;;;;;1.97;0.87;;;17.80;60.70;;;17.68;32.81;100706.31;4905724;28;97304;-54
2021/04/27 07:45:20;;;;;;;0.70;0.70;;;17.90;60.20;;;17.68;32.76;100711.66;4902338;28;97963;-53
2021/04/27 07:47:46;;;;;;;1.00;0.80;;;17.90;60.80;;;17.71;32.68;100706.13;4905322;28;101290;-52
2021/04/27 07:50:12;;;;;;;1.47;0.90;;;17.90;60.30;;;17.70;32.92;100699.94;4898324;28;97567;-49
2021/04/27 07:52:39;;;;;;;1.73;0.93;;;17.90;60.40;;;17.76;32.71;100698.69;4884118;28;98215;-55
2021/04/27 07:55:07;;;;;;;1.40;1.10;;;17.90;60.10;;;17.78;33.11;100702.09;4891726;28;100758;-52
2021/04/27 07:57:34;;;;;;;1.10;0.70;;;17.90;61.20;;;17.77;32.70;100695.06;4899234;28;99387;-54
2021/04/27 07:59:59;;;;;;;6.43;2.60;;;17.90;59.90;;;17.67;25.58;100689.44;4896765;28;97154;-51
2021/04/27 08:02:26;;;;;;;1.80;1.20;;;17.80;51.00;;;17.58;32.71;100699.84;4893293;28;99545;-52
2021/04/27 08:04:52;;;;;;;2.37;0.83;;;17.50;58.80;;;17.57;33.18;100699.00;4882362;28;99725;-48
2021/04/27 08:07:18;;;;;;;1.10;0.70;;;17.60;60.90;;;17.46;33.46;100694.34;4893888;28;97463;-51
2021/04/27 08:09:44;;;;;;;1.10;0.97;;;17.60;61.30;;;17.53;32.74;100692.16;4891820;28;97542;-57
2021/04/27 08:12:10;;;;;;;1.10;0.73;;;17.70;60.30;;;17.51;33.36;100699.41;4902263;28;98673;-53
2021/04/27 08:14:35;;;;;;;2.77;0.90;;;17.70;61.00;;;17.48;33.39;100700.41;4901573;28;97134;-54
2021/04/27 08:17:02;;;;;;;1.40;0.90;;;17.70;60.80;;;17.47;32.71;100693.38;4891499;28;97182;-54
2021/04/27 08:19:28;;;;;;;1.67;1.03;;;17.70;59.90;;;17.50;32.22;100694.97;4891612;28;96985;-56
2021/04/27 08:21:55;;;;;;;1.90;1.00;;;17.70;59.40;;;17.46;32.60;100690.81;4889086;28;100265;-55
2021/04/27 08:24:21;;;;;;;1.27;1.00;;;17.70;60.00;;;17.51;32.47;100689.59;4889102;28;97343;-55
2021/04/27 08:26:47;;;;;;;2.07;1.10;;;17.70;59.60;;;17.45;33.03;100684.63;4896426;28;97145;-54
2021/04/27 08:29:12;;;;;;;1.30;0.90;;;17.70;60.10;;;17.59;32.34;100686.41;4890485;28;97404;-55
2021/04/27 08:31:38;;;;;;;2.13;1.03;;;17.80;59.40;;;17.66;32.05;100685.06;4889704;28;98212;-52
2021/04/27 08:34:04;;;;;;;1.27;1.00;;;17.80;59.30;;;17.67;31.94;100677.94;4887625;28;97404;-55
2021/04/27 08:36:30;;;;;;;1.27;1.07;;;17.90;59.20;;;17.73;31.87;100678.41;4908911;28;96914;-59
2021/04/27 08:38:56;;;;;;;4.03;2.80;;;17.90;58.50;;;17.71;28.45;100671.47;4907470;28;97416;-56
2021/04/27 08:41:24;;;;;;;2.30;1.20;;;17.90;51.40;;;17.73;32.24;100672.22;4897698;28;112596;-50
2021/04/27 08:43:52;;;;;;;1.80;0.90;;;17.80;59.70;;;17.66;32.87;100673.56;4908636;28;97361;-50
2021/04/27 08:46:18;;;;;;;1.13;0.93;;;17.80;60.10;;;17.71;32.24;100674.97;4918104;28;97431;-53
2021/04/27 08:48:44;;;;;;;2.30;1.27;;;17.80;58.80;;;17.70;32.40;100672.41;4891511;28;96833;-52
2021/04/27 08:51:14;;;;;;;4.40;2.50;;;17.90;59.60;;;17.69;29.13;100676.03;4915345;28;99026;-52
2021/04/27 08:53:41;;;;;;;1.80;1.00;;;17.80;52.50;;;17.69;32.51;100676.03;4887329;28;98820;-53
2021/04/27 08:56:07;;;;;;;2.53;1.87;;;17.80;59.10;;;17.60;26.58;100673.94;4901318;28;97342;-55
2021/04/27 08:58:34;;;;;;;1.13;0.93;;;17.60;53.60;;;17.62;32.69;100674.69;4891103;28;97550;-54
2021/04/27 09:00:59;;;;;;;2.00;1.00;;;17.60;59.30;;;17.51;33.03;100672.72;4896213;28;99737;-51
2021/04/27 09:03:25;;;;;;;1.27;0.90;;;17.60;60.50;;;17.57;32.97;100674.13;4886525;28;97599;-51
2021/04/27 09:05:51;;;;;;;3.87;2.27;;;17.70;60.40;;;17.63;31.53;100671.91;4886246;28;99149;-52
2021/04/27 09:08:35;;;;;;;3.13;1.83;;;17.80;56.50;;;17.64;32.15;100670.94;4901241;28;96885;-56
2021/04/27 09:11:01;;;;;;;1.23;0.73;;;17.70;58.20;;;17.60;32.56;100665.94;4890514;28;102642;-56
2021/04/27 09:13:27;;;;;;;0.80;0.77;;;17.70;60.00;;;17.60;32.35;100668.59;4908111;28;97386;-52
2021/04/27 09:15:54;;;;;;;1.37;0.80;;;17.70;59.60;;;17.49;33.04;100663.94;4892720;28;97401;-57
2021/04/27 09:18:29;;;;;;;1.40;0.80;;;17.70;60.40;;;17.57;32.55;100667.00;4899517;28;97240;-53
2021/04/27 09:21:02;;;;;;;1.70;0.80;;;17.70;60.00;;;17.54;33.20;100661.84;4907431;28;102870;-54
2021/04/27 09:23:29;;;;;;;1.40;0.97;;;17.70;60.20;;;17.62;32.42;100656.00;4898085;28;97562;-51
2021/04/27 09:26:18;;;;;;;1.93;1.03;;;17.80;59.90;;;17.69;32.53;100644.88;4891573;28;97351;-54
2021/04/27 09:28:53;;;;;;;1.40;0.70;;;17.90;59.70;;;17.62;33.17;100637.34;4896144;28;97211;-53
2021/04/27 09:31:41;;;;;;;1.00;0.87;;;17.90;60.10;;;17.65;32.40;100654.03;4910960;28;98078;-53
2021/04/27 09:34:22;;;;;;;1.97;1.40;;;17.90;59.60;;;17.72;32.10;100643.84;4907716;28;101927;-52
2021/04/27 09:36:51;;;;;;;1.40;0.97;;;17.90;58.80;;;17.73;31.89;100638.38;4907274;28;97206;-50
2021/04/27 09:39:21;;;;;;;1.13;0.77;;;17.90;59.10;;;17.70;32.69;100633.25;4901488;28;97012;-57
2021/04/27 09:42:01;;;;;;;2.50;1.03;;;17.90;59.90;;;17.66;32.28;100633.53;4897828;28;99944;-57
2021/04/27 09:44:49;;;;;;;2.10;1.17;;;17.90;59.50;;;17.66;32.57;100631.72;4908970;28;98133;-55
2021/04/27 09:47:25;;;;;;;1.60;0.90;;;17.90;59.50;;;17.70;32.35;100629.75;4877376;28;97164;-54
2021/04/27 09:50:05;;;;;;;1.20;0.70;;;17.90;59.30;;;17.78;29.57;100632.75;4908356;28;100072;-54
2021/04/27 09:52:43;;;;;;;1.47;1.00;;;18.00;59.10;;;17.86;27.73;100622.44;4890310;28;100423;-60
2021/04/27 09:55:09;;;;;;;4.17;1.63;;;18.00;55.60;;;17.84;31.00;100619.00;4910208;28;99746;-56
2021/04/27 09:57:52;;;;;;;2.00;1.00;;;18.00;55.70;;;17.88;31.76;100609.84;4886592;28;96909;-57
2021/04/27 10:00:40;;;;;;;1.67;0.80;;;18.10;59.10;;;17.74;31.84;100617.91;4919866;28;97118;-52
2021/04/27 10:03:12;;;;;;;0.67;0.60;;;18.00;59.00;;;17.74;31.93;100615.22;4906371;28;101850;-52
2021/04/27 10:05:45;;;;;;;3.63;2.47;;;17.90;58.80;;;17.80;28.64;100614.84;4895507;28;97315;-52
2021/04/27 10:08:13;;;;;;;1.13;0.80;;;18.00;49.60;;;17.79;32.25;100613.09;4894751;28;98851;-54
2021/04/27 10:10:41;;;;;;;1.80;1.27;;;18.00;58.80;;;17.87;31.28;100605.47;4900963;28;96957;-55
2021/04/27 10:13:09;;;;;;;2.03;0.90;;;18.00;54.60;;;17.82;32.05;100599.59;4896542;28;101901;-52
2021/04/27 10:15:37;;;;;;;1.00;0.80;;;18.00;59.00;;;17.82;31.94;100594.25;4908117;28;100665;-53
2021/04/27 10:18:18;;;;;;;1.10;0.90;;;18.00;59.10;;;17.86;32.11;100597.56;4892510;28;96881;-51
2021/04/27 10:21:34;;;;;;;1.47;0.90;;;18.00;58.80;;;17.86;30.13;100590.41;4793380;28;97733;-49
2021/04/27 10:24:45;;;;;;;1.73;1.00;;;18.00;57.70;;;17.82;25.83;100581.78;4749144;28;101835;-53
2021/04/27 10:27:11;;;;;;;2.10;1.00;;;18.00;55.70;;;17.79;31.73;100581.09;4877814;28;100579;-54
2021/04/27 10:29:37;;;;;;;1.90;1.30;;;18.00;58.60;;;17.67;32.64;100576.56;4907861;28;97214;-53